Time;durP1;ratioP1;P1;durP2;ratioP2;P2;SDS_P1;SDS_P2;PMS_P1;PMS_P2;Temp;Humidity;BMP_temperature;BMP_pressure;BME280_temperature;BME280_humidity;BME280_pressure;Samples;Min_cycle;Max_cycle;Signal;HPM_P1;HPM_P2
2021/10/27 00:01:53;;;;;;;8.27;3.78;;;25.30;78.80;;;;;;5065806;28;20024;-66
2021/10/27 00:04:20;;;;;;;7.20;3.58;;;25.60;76.40;;;;;;5064701;28;20028;-67
2021/10/27 00:06:47;;;;;;;4.90;3.20;;;25.60;74.80;;;;;;5064670;28;20431;-68
2021/10/27 00:09:14;;;;;;;5.15;3.30;;;25.70;73.10;;;;;;5063837;28;20147;-68
2021/10/27 00:11:41;;;;;;;7.85;4.13;;;25.90;70.90;;;;;;5064128;28;20142;-67
2021/10/27 00:14:08;;;;;;;7.03;3.00;;;25.90;72.00;;;;;;5062974;28;20021;-69
2021/10/27 00:16:36;;;;;;;7.43;3.53;;;26.00;72.10;;;;;;5064285;28;20035;-68
2021/10/27 00:19:03;;;;;;;7.72;3.63;;;26.30;71.10;;;;;;5064115;28;20035;-69
2021/10/27 00:21:30;;;;;;;8.70;3.88;;;26.50;69.90;;;;;;5064318;28;20024;-67
2021/10/27 00:23:57;;;;;;;5.07;3.22;;;26.60;69.20;;;;;;5064241;28;20382;-67
2021/10/27 00:26:24;;;;;;;9.82;3.50;;;26.60;67.60;;;;;;5064250;28;20043;-69
2021/10/27 00:28:52;;;;;;;7.05;2.80;;;26.50;66.60;;;;;;5061626;28;20651;-68
2021/10/27 00:31:19;;;;;;;5.55;2.65;;;26.60;66.40;;;;;;5063518;28;20430;-67
2021/10/27 00:33:46;;;;;;;7.82;3.03;;;26.80;66.60;;;;;;5063294;28;20124;-69
2021/10/27 00:36:13;;;;;;;4.35;2.72;;;27.10;65.10;;;;;;5062430;28;20027;-66
2021/10/27 00:38:40;;;;;;;7.28;3.00;;;27.10;65.00;;;;;;5063025;28;20028;-67
2021/10/27 00:41:09;;;;;;;7.80;3.50;;;27.30;64.00;;;;;;5062869;28;20039;-68
2021/10/27 00:43:37;;;;;;;4.05;2.78;;;27.60;64.30;;;;;;5060880;28;20037;-68
2021/10/27 00:46:05;;;;;;;4.18;2.58;;;27.70;59.00;;;;;;5062665;28;20032;-66
2021/10/27 00:48:34;;;;;;;7.20;2.85;;;27.80;58.30;;;;;;5062494;28;20056;-67
2021/10/27 00:51:01;;;;;;;9.32;3.20;;;27.90;57.80;;;;;;5062213;28;20031;-66
2021/10/27 00:53:29;;;;;;;8.30;4.82;;;28.10;59.80;;;;;;5062583;22;20064;-67
2021/10/27 00:55:56;;;;;;;5.93;2.65;;;27.80;61.10;;;;;;5043551;28;20024;-69
2021/10/27 00:58:24;;;;;;;6.22;2.50;;;27.70;58.40;;;;;;5043313;28;20013;-68
2021/10/27 01:00:51;;;;;;;5.47;2.40;;;28.00;57.30;;;;;;5042798;28;20095;-68
2021/10/27 01:03:18;;;;;;;6.85;2.70;;;28.20;56.20;;;;;;5042122;28;20025;-67
2021/10/27 01:05:46;;;;;;;7.82;2.20;;;28.50;51.30;;;;;;5043025;28;20503;-67
2021/10/27 01:08:14;;;;;;;6.20;2.65;;;28.50;51.90;;;;;;5042215;28;20036;-67
2021/10/27 01:10:42;;;;;;;7.25;3.03;;;28.40;55.40;;;;;;5042304;28;20061;-67
2021/10/27 01:13:09;;;;;;;4.78;2.60;;;28.60;52.40;;;;;;5042938;28;20044;-67
2021/10/27 01:15:40;;;;;;;4.70;2.72;;;28.50;54.60;;;;;;5042019;28;20059;-67
2021/10/27 01:18:09;;;;;;;4.57;3.40;;;28.60;53.50;;;;;;5042333;28;20118;-69
2021/10/27 01:20:36;;;;;;;6.88;2.70;;;28.90;53.40;;;;;;5042586;28;20033;-68
2021/10/27 01:23:03;;;;;;;4.70;2.13;;;29.10;49.90;;;;;;5042094;28;20569;-69
2021/10/27 01:25:30;;;;;;;4.88;2.78;;;29.20;49.90;;;;;;5042053;28;20115;-68
2021/10/27 01:28:00;;;;;;;4.70;2.85;;;29.10;48.10;;;;;;5040287;28;20017;-67
2021/10/27 01:30:27;;;;;;;3.63;2.53;;;29.10;47.80;;;;;;5042281;28;20033;-66
2021/10/27 01:32:57;;;;;;;7.60;5.75;;;28.90;49.60;;;;;;5041626;28;20049;-68
2021/10/27 01:35:25;;;;;;;4.57;3.17;;;28.80;51.60;;;;;;5042373;28;20731;-67
2021/10/27 01:37:52;;;;;;;5.68;3.50;;;29.20;48.50;;;;;;5042648;28;20749;-67
2021/10/27 01:40:19;;;;;;;4.10;3.20;;;29.50;47.80;;;;;;5041787;28;20035;-68
2021/10/27 01:42:52;;;;;;;4.85;3.30;;;29.30;48.70;;;;;;5041853;28;20472;-68
2021/10/27 01:45:19;;;;;;;5.28;2.60;;;29.50;49.00;;;;;;5041672;28;20025;-67
2021/10/27 01:47:47;;;;;;;4.90;3.08;;;29.50;48.80;;;;;;5042770;28;20132;-67
2021/10/27 01:50:15;;;;;;;5.47;3.00;;;29.60;48.50;;;;;;5041665;28;20375;-67
2021/10/27 01:52:44;;;;;;;3.72;3.00;;;29.40;51.20;;;;;;5041142;28;20650;-68
2021/10/27 01:55:11;;;;;;;4.47;3.33;;;29.90;48.50;;;;;;5041401;28;20087;-68
2021/10/27 01:57:38;;;;;;;5.28;3.05;;;30.10;46.40;;;;;;5042368;28;20024;-69
2021/10/27 02:00:09;;;;;;;5.43;2.92;;;30.30;47.30;;;;;;5043478;28;20032;-68
2021/10/27 02:02:36;;;;;;;6.32;4.57;;;30.40;45.50;;;;;;5041876;28;20649;-68
2021/10/27 02:05:03;;;;;;;5.75;3.33;;;30.30;47.80;;;;;;5044169;28;20032;-69
2021/10/27 02:07:30;;;;;;;4.32;3.40;;;30.30;48.00;;;;;;5044051;28;20028;-68
2021/10/27 02:09:57;;;;;;;3.40;2.97;;;30.40;48.00;;;;;;5044137;28;20116;-68
2021/10/27 02:12:24;;;;;;;7.55;3.13;;;30.10;48.80;;;;;;5043796;28;20025;-66
2021/10/27 02:14:51;;;;;;;6.75;3.60;;;30.10;48.70;;;;;;5044347;28;20029;-65
2021/10/27 02:17:18;;;;;;;5.32;3.30;;;30.50;48.60;;;;;;5044091;28;20139;-68
2021/10/27 02:19:45;;;;;;;5.10;4.18;;;31.20;44.70;;;;;;5043529;28;20033;-68
2021/10/27 02:22:12;;;;;;;4.80;3.05;;;31.30;44.30;;;;;;5044106;28;20503;-68
2021/10/27 02:24:39;;;;;;;6.78;2.85;;;31.00;46.50;;;;;;5043654;28;20029;-66
2021/10/27 02:27:07;;;;;;;5.03;3.47;;;30.80;46.50;;;;;;5044778;28;20031;-66
2021/10/27 02:29:34;;;;;;;4.13;3.35;;;31.20;47.70;;;;;;5042927;28;20463;-65
2021/10/27 02:32:01;;;;;;;9.15;3.30;;;31.30;46.40;;;;;;5044136;28;20025;-65
2021/10/27 02:34:28;;;;;;;4.95;3.28;;;31.50;46.10;;;;;;5043548;28;20013;-68
2021/10/27 02:36:55;;;;;;;4.93;3.22;;;31.50;46.70;;;;;;5043940;28;20708;-66
2021/10/27 02:39:22;;;;;;;4.95;3.53;;;31.20;47.30;;;;;;5044258;28;20017;-66
2021/10/27 02:41:49;;;;;;;5.03;2.97;;;31.60;44.00;;;;;;5044070;28;20040;-65
2021/10/27 02:44:16;;;;;;;6.38;3.28;;;31.50;45.40;;;;;;5043550;28;20025;-67
2021/10/27 02:46:43;;;;;;;5.20;3.25;;;31.20;45.90;;;;;;5043496;28;20024;-65
2021/10/27 02:49:11;;;;;;;6.25;3.30;;;31.00;45.00;;;;;;5044563;28;20479;-65
2021/10/27 02:51:38;;;;;;;4.78;3.20;;;30.90;47.80;;;;;;5043808;28;20033;-65
2021/10/27 02:54:05;;;;;;;6.50;3.65;;;31.00;48.20;;;;;;5044253;28;20045;-68
2021/10/27 02:56:32;;;;;;;4.72;3.58;;;31.40;48.50;;;;;;5043652;28;20032;-67
2021/10/27 02:58:59;;;;;;;4.13;3.60;;;31.50;46.00;;;;;;5044316;28;20368;-67
2021/10/27 03:01:26;;;;;;;3.28;2.60;;;31.70;45.90;;;;;;5043865;28;20055;-68
2021/10/27 03:03:54;;;;;;;5.30;2.88;;;32.00;45.60;;;;;;5043439;28;20055;-68
2021/10/27 03:06:21;;;;;;;4.80;3.10;;;32.40;45.80;;;;;;5043662;28;20031;-69
2021/10/27 03:08:48;;;;;;;5.53;4.15;;;32.60;44.10;;;;;;5043485;28;20063;-69
2021/10/27 03:11:15;;;;;;;5.50;2.78;;;32.50;45.90;;;;;;5043403;28;20028;-68
2021/10/27 03:13:42;;;;;;;4.90;2.58;;;32.60;43.20;;;;;;5042851;28;20037;-67
2021/10/27 03:16:09;;;;;;;3.35;2.90;;;32.60;41.70;;;;;;5044310;28;20032;-68
2021/10/27 03:18:36;;;;;;;3.83;3.40;;;32.80;41.00;;;;;;5043794;28;20025;-68
2021/10/27 03:21:03;;;;;;;5.68;3.20;;;32.80;41.10;;;;;;5042946;28;20025;-66
2021/10/27 03:23:30;;;;;;;5.18;2.72;;;32.60;42.00;;;;;;5043169;28;20071;-67
2021/10/27 03:25:57;;;;;;;5.53;2.72;;;32.60;42.80;;;;;;5043526;28;20124;-68
2021/10/27 03:28:24;;;;;;;4.18;3.05;;;32.80;41.80;;;;;;5042939;28;20079;-68
2021/10/27 03:30:51;;;;;;;6.35;3.28;;;33.10;40.60;;;;;;5043018;28;20679;-68
2021/10/27 03:33:18;;;;;;;5.75;3.22;;;32.70;41.80;;;;;;5042602;28;20021;-69
2021/10/27 03:35:47;;;;;;;5.68;2.53;;;32.60;43.00;;;;;;5043915;28;20021;-69
2021/10/27 03:38:14;;;;;;;4.95;3.17;;;32.80;40.00;;;;;;5043573;28;20116;-68
2021/10/27 03:40:43;;;;;;;5.25;2.75;;;32.80;41.20;;;;;;5043696;28;20033;-69
2021/10/27 03:43:10;;;;;;;4.50;2.78;;;33.00;40.00;;;;;;5042506;28;20499;-68
2021/10/27 03:45:37;;;;;;;6.00;3.10;;;33.10;40.80;;;;;;5042833;28;20499;-67
2021/10/27 03:48:05;;;;;;;4.53;2.88;;;33.40;40.40;;;;;;5045063;28;20111;-65
2021/10/27 03:50:32;;;;;;;4.72;3.15;;;33.40;40.00;;;;;;5046896;28;20021;-67
2021/10/27 03:52:59;;;;;;;6.50;2.95;;;33.50;41.80;;;;;;5046893;28;20045;-68
2021/10/27 03:55:26;;;;;;;6.70;2.95;;;33.80;40.30;;;;;;5046321;28;20214;-67
2021/10/27 03:57:53;;;;;;;5.15;2.72;;;33.80;41.10;;;;;;5045354;28;20029;-66
2021/10/27 04:00:20;;;;;;;4.00;2.67;;;33.90;40.30;;;;;;5044689;28;20174;-66
2021/10/27 04:02:47;;;;;;;5.13;3.30;;;33.80;38.50;;;;;;5044138;28;20109;-67
2021/10/27 04:05:14;;;;;;;5.15;3.20;;;33.60;41.20;;;;;;5045312;28;20060;-66
2021/10/27 04:07:42;;;;;;;4.82;3.20;;;33.40;40.30;;;;;;5044272;28;20069;-67
2021/10/27 04:10:10;;;;;;;5.82;3.08;;;33.80;39.40;;;;;;5042898;28;20071;-69
2021/10/27 04:12:39;;;;;;;4.15;2.80;;;33.80;38.40;;;;;;5044982;28;20483;-68
2021/10/27 04:15:08;;;;;;;5.22;2.70;;;33.10;39.10;;;;;;5046304;28;20078;-65
2021/10/27 04:17:35;;;;;;;5.22;3.03;;;32.80;39.20;;;;;;5045607;28;20431;-69
2021/10/27 04:20:05;;;;;;;5.07;2.80;;;32.90;39.50;;;;;;5046892;28;20075;-69
2021/10/27 04:22:32;;;;;;;3.55;2.38;;;33.20;41.90;;;;;;5045493;28;20556;-67
2021/10/27 04:25:00;;;;;;;8.02;4.75;;;33.30;45.50;;;;;;5046024;28;20079;-68
2021/10/27 04:27:27;;;;;;;7.90;4.55;;;32.80;47.70;;;;;;5045769;28;20098;-69
2021/10/27 04:29:53;;;;;;;5.35;2.42;;;33.00;47.90;;;;;;5045616;28;20670;-67
2021/10/27 04:32:21;;;;;;;8.02;2.33;;;32.70;47.30;;;;;;5045553;28;20013;-68
2021/10/27 04:34:47;;;;;;;7.90;3.30;;;32.30;48.90;;;;;;5045989;28;20029;-67
2021/10/27 04:37:16;;;;;;;7.25;2.92;;;31.90;49.50;;;;;;5045875;28;20403;-67
2021/10/27 04:39:43;;;;;;;6.40;2.40;;;31.70;50.70;;;;;;5046128;28;20029;-66
2021/10/27 04:42:10;;;;;;;8.10;2.92;;;31.30;52.50;;;;;;5044803;28;20032;-69
2021/10/27 04:44:37;;;;;;;5.75;2.67;;;31.30;51.90;;;;;;5045451;28;20498;-65
2021/10/27 04:47:04;;;;;;;5.50;2.10;;;31.40;52.30;;;;;;5045332;28;20017;-65
2021/10/27 04:49:32;;;;;;;7.65;2.85;;;31.50;52.20;;;;;;5045947;28;20070;-67
2021/10/27 04:51:59;;;;;;;7.72;2.10;;;31.30;53.20;;;;;;5043840;28;20111;-68
2021/10/27 04:54:26;;;;;;;10.55;2.63;;;30.90;54.40;;;;;;5045656;28;20122;-65
2021/10/27 04:56:53;;;;;;;9.68;3.10;;;30.80;55.10;;;;;;5045431;28;20028;-69
2021/10/27 04:59:20;;;;;;;4.78;3.03;;;31.30;52.90;;;;;;5042929;28;20116;-70
2021/10/27 05:01:48;;;;;;;7.18;2.70;;;31.40;52.20;;;;;;5044879;28;20033;-70
2021/10/27 05:04:16;;;;;;;7.38;3.03;;;31.30;53.00;;;;;;5044801;28;20340;-68
2021/10/27 05:06:43;;;;;;;8.75;2.75;;;31.00;54.60;;;;;;5046041;28;20827;-67
2021/10/27 05:09:10;;;;;;;10.25;3.35;;;31.30;53.60;;;;;;5043772;28;20139;-66
2021/10/27 05:11:37;;;;;;;6.80;2.65;;;31.40;53.40;;;;;;5044564;28;20025;-66
2021/10/27 05:14:04;;;;;;;6.82;2.85;;;31.20;53.90;;;;;;5044838;28;20078;-67
2021/10/27 05:16:31;;;;;;;6.13;2.88;;;31.00;54.30;;;;;;5043878;28;20068;-67
2021/10/27 05:18:58;;;;;;;9.18;4.03;;;30.70;55.70;;;;;;5044838;28;20029;-67
2021/10/27 05:21:25;;;;;;;11.70;6.03;;;30.70;55.70;;;;;;5043098;28;20033;-68
2021/10/27 05:23:52;;;;;;;5.43;3.38;;;30.80;55.70;;;;;;5042223;28;20044;-68
2021/10/27 05:26:19;;;;;;;9.07;3.80;;;30.70;54.70;;;;;;5044558;28;20033;-69
2021/10/27 05:28:46;;;;;;;5.43;3.00;;;30.10;55.90;;;;;;5043970;28;20033;-67
2021/10/27 05:31:13;;;;;;;6.88;3.35;;;29.50;57.40;;;;;;5044956;28;20032;-72
2021/10/27 05:33:40;;;;;;;9.85;3.22;;;29.30;58.80;;;;;;5042580;28;20037;-64
2021/10/27 05:36:07;;;;;;;6.40;3.50;;;29.50;59.10;;;;;;5043855;28;20036;-65
2021/10/27 05:38:34;;;;;;;6.70;2.70;;;29.80;58.50;;;;;;5045052;28;20024;-69
2021/10/27 05:41:01;;;;;;;6.80;3.03;;;30.40;57.50;;;;;;5044794;28;20025;-68
2021/10/27 05:43:28;;;;;;;6.80;2.40;;;30.70;57.10;;;;;;5043871;28;20052;-67
2021/10/27 05:45:57;;;;;;;5.82;3.03;;;30.90;55.60;;;;;;5043565;28;20032;-67
2021/10/27 05:48:29;;;;;;;5.75;2.35;;;31.00;55.40;;;;;;5043797;28;20043;-67
2021/10/27 05:56:21;;;;;;;6.75;2.67;;;30.50;57.00;;;;;;5044159;28;20031;-68
2021/10/27 05:58:50;;;;;;;7.00;2.50;;;31.00;56.30;;;;;;5044873;28;20021;-67
2021/10/27 06:01:17;;;;;;;9.38;2.53;;;31.20;55.50;;;;;;5043957;28;20133;-67
2021/10/27 06:03:44;;;;;;;4.30;2.38;;;31.20;54.80;;;;;;5043864;28;20060;-67
2021/10/27 06:06:12;;;;;;;6.05;2.17;;;30.80;57.10;;;;;;5043755;28;20025;-66
2021/10/27 06:08:39;;;;;;;5.22;2.30;;;30.70;54.90;;;;;;5044311;28;20400;-68
2021/10/27 06:11:12;;;;;;;5.45;2.13;;;30.40;56.30;;;;;;5042880;28;20021;-67
2021/10/27 06:13:46;;;;;;;5.57;2.20;;;30.70;56.10;;;;;;5043710;28;20167;-66
2021/10/27 06:16:14;;;;;;;4.80;2.38;;;30.70;54.60;;;;;;5044443;28;20082;-65
2021/10/27 06:18:42;;;;;;;8.88;2.78;;;31.10;54.80;;;;;;5044576;28;20040;-66
2021/10/27 06:21:12;;;;;;;4.63;2.33;;;31.40;55.70;;;;;;5043694;28;20376;-67
2021/10/27 06:23:40;;;;;;;8.13;2.90;;;32.00;52.80;;;;;;5043103;28;20099;-64
2021/10/27 06:26:07;;;;;;;8.20;2.60;;;32.30;51.60;;;;;;5043510;28;20053;-66
2021/10/27 06:28:46;;;;;;;7.13;2.75;;;31.90;52.00;;;;;;5043022;28;20068;-68
2021/10/27 06:31:22;;;;;;;6.38;2.25;;;31.60;52.60;;;;;;5043697;28;20436;-69
2021/10/27 06:33:59;;;;;;;4.25;2.03;;;31.80;52.80;;;;;;5043008;28;20020;-66
2021/10/27 06:47:08;;;;;;;7.32;2.58;;;31.20;52.80;;;;;;5039686;28;20111;-68
2021/10/27 06:49:35;;;;;;;7.75;2.20;;;31.60;52.20;;;;;;5040431;28;20131;-69
2021/10/27 06:52:03;;;;;;;5.35;2.10;;;31.90;51.70;;;;;;5041427;28;20021;-67
2021/10/27 06:54:30;;;;;;;6.38;2.17;;;32.00;51.60;;;;;;5040990;28;20176;-68
2021/10/27 06:56:56;;;;;;;4.25;1.83;;;32.20;50.60;;;;;;5040720;28;20120;-68
2021/10/27 06:59:32;;;;;;;8.80;4.00;;;32.40;50.30;;;;;;5041758;28;20325;-68
2021/10/27 07:15:20;;;;;;;7.60;3.20;;;31.00;53.40;;;;;;5041330;28;20447;-65
2021/10/27 07:17:55;;;;;;;5.25;3.13;;;31.20;53.70;;;;;;5035907;28;20029;-67
2021/10/27 07:20:25;;;;;;;6.75;2.17;;;31.50;52.40;;;;;;5037726;28;20575;-66
2021/10/27 07:23:03;;;;;;;4.68;1.98;;;31.70;52.40;;;;;;5040561;28;20025;-67
2021/10/27 07:25:35;;;;;;;5.13;1.95;;;31.60;51.60;;;;;;5041154;28;21325;-65
2021/10/27 07:28:03;;;;;;;7.53;3.80;;;30.90;53.80;;;;;;5043528;28;20040;-66
2021/10/27 07:30:31;;;;;;;9.55;5.20;;;30.30;54.90;;;;;;5042122;28;20067;-66
2021/10/27 07:32:58;;;;;;;7.05;4.50;;;29.90;55.30;;;;;;5042223;28;20021;-70
2021/10/27 07:35:34;;;;;;;7.43;2.97;;;29.50;57.30;;;;;;5039223;28;20078;-66
2021/10/27 07:40:48;;;;;;;8.27;4.03;;;29.30;56.90;;;;;;5044935;28;20124;-69
2021/10/27 07:43:22;;;;;;;9.13;5.05;;;29.00;57.10;;;;;;5042968;28;20087;-64
2021/10/27 07:45:49;;;;;;;6.72;4.30;;;28.80;57.90;;;;;;5040267;28;20044;-66
2021/10/27 07:48:19;;;;;;;10.70;7.10;;;28.60;58.60;;;;;;5040616;28;20439;-68
2021/10/27 07:50:47;;;;;;;7.07;3.17;;;28.60;58.60;;;;;;5043729;28;20037;-70
2021/10/27 07:53:15;;;;;;;5.28;1.92;;;28.10;59.90;;;;;;5044162;28;20056;-66
2021/10/27 07:55:52;;;;;;;7.20;2.33;;;27.40;61.10;;;;;;5042690;28;20277;-65
2021/10/27 07:58:21;;;;;;;6.93;2.08;;;26.60;63.50;;;;;;5039092;28;20534;-61
2021/10/27 08:00:49;;;;;;;9.13;3.42;;;25.90;65.80;;;;;;5040668;28;20112;-67
2021/10/27 08:03:18;;;;;;;6.28;2.20;;;25.40;69.00;;;;;;5040448;28;20036;-64
2021/10/27 08:05:45;;;;;;;5.32;2.30;;;24.90;70.30;;;;;;5044126;28;20102;-61
2021/10/27 08:08:14;;;;;;;3.03;1.90;;;24.60;72.60;;;;;;5041808;28;20090;-64
2021/10/27 08:10:43;;;;;;;6.90;2.33;;;24.40;73.60;;;;;;5042667;28;20036;-63
2021/10/27 08:13:10;;;;;;;6.78;2.97;;;24.20;74.70;;;;;;5042296;28;20029;-65
2021/10/27 08:15:38;;;;;;;6.63;2.47;;;24.00;76.50;;;;;;5041968;28;20025;-64
2021/10/27 08:18:16;;;;;;;9.57;2.40;;;23.90;77.10;;;;;;5043076;28;20025;-64
2021/10/27 08:20:47;;;;;;;6.30;2.67;;;23.70;78.40;;;;;;5043221;28;20028;-64
2021/10/27 08:23:16;;;;;;;5.78;2.38;;;23.40;80.60;;;;;;5040756;28;20033;-62
2021/10/27 08:28:17;;;;;;;6.13;2.50;;;23.20;83.80;;;;;;5042035;28;20025;-63
2021/10/27 08:31:02;;;;;;;4.43;2.30;;;23.00;85.00;;;;;;5040118;28;20075;-64
2021/10/27 08:36:03;;;;;;;6.97;2.65;;;22.80;90.10;;;;;;5043608;28;20558;-63
2021/10/27 08:38:30;;;;;;;5.90;2.50;;;22.60;90.70;;;;;;5042195;28;20537;-64
2021/10/27 08:40:58;;;;;;;7.68;2.22;;;22.60;90.30;;;;;;5039647;28;20116;-64
2021/10/27 08:43:25;;;;;;;5.03;2.25;;;22.60;90.30;;;;;;5039610;28;20121;-65
2021/10/27 08:45:53;;;;;;;6.60;2.50;;;22.40;90.90;;;;;;5038992;28;20072;-66
2021/10/27 08:48:20;;;;;;;6.10;2.15;;;22.30;91.40;;;;;;5040899;28;20272;-67
2021/10/27 08:50:49;;;;;;;7.15;2.60;;;22.20;91.90;;;;;;5033327;28;20067;-67
2021/10/27 08:53:18;;;;;;;4.70;2.28;;;22.10;92.60;;;;;;5039410;28;20502;-67
2021/10/27 08:55:48;;;;;;;16.15;2.90;;;22.00;93.10;;;;;;5037830;28;20790;-67
2021/10/27 08:58:27;;;;;;;8.15;2.53;;;21.90;93.20;;;;;;5034037;28;20029;-66
2021/10/27 09:03:46;;;;;;;8.00;3.03;;;21.80;94.10;;;;;;5038362;28;20027;-66
2021/10/27 09:07:08;;;;;;;5.20;2.53;;;21.70;94.80;;;;;;5039481;28;20225;-63
2021/10/27 09:15:18;;;;;;;6.85;3.25;;;21.60;95.70;;;;;;5010243;28;20037;-66
2021/10/27 09:35:09;;;;;;;7.90;2.42;;;21.10;97.60;;;;;;5035481;28;20040;-67
2021/10/27 10:05:20;;;;;;;9.65;2.90;;;20.40;99.90;;;;;;5040565;28;19919;-66
2021/10/27 10:07:48;;;;;;;10.20;3.40;;;20.30;99.90;;;;;;5039072;28;20136;-69
2021/10/27 10:10:16;;;;;;;9.13;3.55;;;20.30;99.90;;;;;;5039273;28;20729;-66
2021/10/27 10:12:44;;;;;;;11.07;3.83;;;20.30;99.90;;;;;;5041546;28;20091;-68
2021/10/27 10:15:12;;;;;;;6.20;2.92;;;20.30;99.90;;;;;;5041160;28;20021;-65
2021/10/27 10:17:44;;;;;;;7.10;2.90;;;20.30;99.90;;;;;;5038971;28;20021;-66
2021/10/27 10:20:12;;;;;;;7.22;3.20;;;20.30;99.90;;;;;;5039042;28;20471;-66
2021/10/27 10:22:43;;;;;;;8.32;3.13;;;20.20;99.90;;;;;;5039579;28;20037;-66
2021/10/27 10:25:16;;;;;;;7.32;3.05;;;20.20;99.90;;;;;;5040199;28;20028;-66
2021/10/27 10:27:44;;;;;;;7.85;3.17;;;20.20;99.90;;;;;;5040651;28;20619;-65
2021/10/27 10:30:39;;;;;;;6.47;3.25;;;20.10;99.90;;;;;;5035940;28;20382;-66
2021/10/27 10:33:08;;;;;;;8.85;3.80;;;20.10;99.90;;;;;;5037173;28;20037;-68
2021/10/27 11:25:09;;;;;;;5.85;3.67;;;19.50;99.90;;;;;;5033933;28;20164;-71
2021/10/27 11:45:03;;;;;;;15.50;4.30;;;19.10;99.90;;;;;;5036448;28;20043;-65
2021/10/27 11:47:40;;;;;;;15.18;4.30;;;19.00;99.90;;;;;;5040195;28;20132;-64
2021/10/27 11:50:18;;;;;;;13.02;4.00;;;18.80;99.90;;;;;;5041887;28;20025;-69
2021/10/27 11:52:54;;;;;;;6.60;3.70;;;18.80;99.90;;;;;;5044500;28;20029;-67
2021/10/27 11:55:23;;;;;;;11.85;4.15;;;18.70;99.90;;;;;;5038793;28;20063;-68
2021/10/27 11:57:53;;;;;;;9.80;4.15;;;18.80;99.90;;;;;;5040048;28;20029;-68
2021/10/27 12:00:34;;;;;;;10.18;4.68;;;18.70;99.90;;;;;;5038855;28;20039;-65
2021/10/27 12:05:40;;;;;;;;;;;18.60;99.90;;;;;;5045993;28;20806;-69
2021/10/27 12:08:25;;;;;;;9.57;4.28;;;18.60;99.90;;;;;;5042823;28;19916;-68
2021/10/27 12:11:51;;;;;;;7.80;3.78;;;18.50;99.90;;;;;;5042821;28;20029;-70
2021/10/27 12:19:30;;;;;;;6.78;4.47;;;18.30;99.90;;;;;;5043814;28;20039;-73
2021/10/27 12:22:09;;;;;;;8.48;4.30;;;18.20;99.90;;;;;;5042337;28;20040;-70
2021/10/27 12:24:39;;;;;;;7.32;5.47;;;18.20;99.90;;;;;;5043651;28;20075;-69
2021/10/27 12:27:35;;;;;;;10.13;4.20;;;18.10;99.90;;;;;;5047317;28;20124;-68
2021/10/27 12:30:11;;;;;;;10.90;4.70;;;18.10;99.90;;;;;;5043648;28;20395;-71
2021/10/27 12:33:01;;;;;;;13.98;3.92;;;18.10;99.90;;;;;;5045739;28;20824;-72
2021/10/27 12:35:28;;;;;;;9.27;4.70;;;18.00;99.90;;;;;;5044207;28;20079;-72
2021/10/27 12:38:21;;;;;;;7.13;3.85;;;18.00;99.90;;;;;;5043631;28;20025;-71
2021/10/27 12:40:50;;;;;;;8.98;4.30;;;18.00;99.90;;;;;;5041753;28;20036;-69
2021/10/27 12:43:20;;;;;;;11.38;4.68;;;18.00;99.90;;;;;;5043347;28;20551;-70
2021/10/27 12:45:54;;;;;;;8.38;4.15;;;18.00;99.90;;;;;;5042703;28;20116;-69
2021/10/27 12:48:34;;;;;;;8.48;3.95;;;18.00;99.90;;;;;;5045332;28;20083;-68
2021/10/27 12:51:10;;;;;;;6.38;3.38;;;17.90;99.90;;;;;;5045556;28;20052;-67
2021/10/27 12:53:42;;;;;;;9.00;3.60;;;18.00;99.90;;;;;;5050563;23;20529;-71
2021/10/27 12:56:25;;;;;;;8.15;4.28;;;17.90;99.90;;;;;;5044393;28;20907;-67
2021/10/27 12:59:09;;;;;;;6.68;4.25;;;17.80;99.90;;;;;;5045285;28;20035;-69
2021/10/27 13:01:43;;;;;;;8.50;4.28;;;17.70;99.90;;;;;;5040629;28;20025;-70
2021/10/27 13:07:12;;;;;;;11.90;4.03;;;17.60;99.90;;;;;;5045021;28;20036;-71
2021/10/27 13:17:46;;;;;;;8.63;4.57;;;17.30;99.90;;;;;;5045111;28;20025;-74
2021/10/27 13:33:19;;;;;;;8.60;3.53;;;17.50;99.90;;;;;;5044863;28;20025;-68
2021/10/27 13:35:46;;;;;;;10.65;4.50;;;17.50;99.90;;;;;;5042345;28;20439;-67
2021/10/27 13:38:14;;;;;;;11.93;4.63;;;17.50;99.90;;;;;;5043384;28;20074;-73
2021/10/27 13:40:44;;;;;;;8.88;4.53;;;17.40;99.90;;;;;;5044879;28;20036;-70
2021/10/27 13:43:16;;;;;;;10.32;4.85;;;17.40;99.90;;;;;;5043605;28;20085;-70
2021/10/27 14:06:56;;;;;;;19.00;6.32;;;17.20;99.90;;;;;;5044568;28;20110;-70
2021/10/27 14:09:37;;;;;;;14.57;5.80;;;17.20;99.90;;;;;;5042118;28;20071;-68
2021/10/27 14:12:18;;;;;;;17.35;5.18;;;17.30;99.90;;;;;;5043777;28;20017;-74
2021/10/27 15:43:40;;;;;;;10.20;5.28;;;16.10;99.90;;;;;;5043991;28;20040;-69
2021/10/27 15:51:44;;;;;;;19.60;7.35;;;16.00;99.90;;;;;;5047447;28;20033;-68
2021/10/27 15:54:14;;;;;;;15.50;6.03;;;16.00;99.90;;;;;;5043144;28;20484;-70
2021/10/27 15:56:42;;;;;;;24.40;7.40;;;16.10;99.90;;;;;;5047055;28;20074;-70
2021/10/27 15:59:10;;;;;;;31.92;8.43;;;16.10;99.90;;;;;;5045912;28;20025;-67
2021/10/27 16:01:37;;;;;;;49.00;10.95;;;16.20;99.90;;;;;;5045335;28;20070;-69
2021/10/27 16:04:04;;;;;;;82.15;13.57;;;16.20;99.90;;;;;;5044926;28;20028;-69
2021/10/27 16:06:46;;;;;;;57.60;12.50;;;16.30;99.90;;;;;;5045906;28;20040;-69
2021/10/27 16:09:13;;;;;;;55.77;12.70;;;16.40;99.90;;;;;;5044824;28;20567;-68
2021/10/27 16:11:41;;;;;;;67.85;12.65;;;16.40;99.90;;;;;;5046140;28;20024;-67
2021/10/27 16:14:08;;;;;;;67.07;12.57;;;16.40;99.90;;;;;;5046547;28;20029;-68
2021/10/27 16:16:35;;;;;;;56.72;11.45;;;16.40;99.90;;;;;;5047195;28;20115;-68
2021/10/27 16:19:02;;;;;;;27.60;8.07;;;16.40;99.90;;;;;;5046652;28;20034;-69
2021/10/27 16:21:32;;;;;;;26.23;8.15;;;16.60;99.90;;;;;;5046960;28;20029;-68
2021/10/27 16:23:59;;;;;;;23.40;7.00;;;16.60;99.90;;;;;;5045141;28;20079;-67
2021/10/27 16:26:27;;;;;;;19.13;7.55;;;16.60;99.90;;;;;;5045784;28;20032;-69
2021/10/27 16:28:56;;;;;;;27.98;7.78;;;16.50;99.90;;;;;;5046330;28;20032;-68
2021/10/27 16:31:23;;;;;;;20.55;6.80;;;16.40;99.90;;;;;;5045126;28;20491;-70
2021/10/27 16:33:50;;;;;;;17.45;6.10;;;16.30;99.90;;;;;;5046728;28;20456;-68
2021/10/27 16:36:17;;;;;;;20.30;6.55;;;16.30;99.90;;;;;;5045444;28;20056;-69
2021/10/27 16:38:45;;;;;;;13.10;5.85;;;16.30;99.90;;;;;;5046067;28;20033;-69
2021/10/27 16:41:14;;;;;;;13.30;6.38;;;16.30;99.90;;;;;;5046595;28;20037;-69
2021/10/27 16:43:43;;;;;;;13.00;6.05;;;16.30;99.90;;;;;;5045095;28;20126;-69
2021/10/27 16:46:11;;;;;;;14.93;5.72;;;16.20;99.90;;;;;;5045701;28;20029;-68
2021/10/27 16:48:38;;;;;;;12.48;6.32;;;16.30;99.90;;;;;;5045669;28;20193;-68
2021/10/27 16:51:06;;;;;;;17.58;6.47;;;16.20;99.90;;;;;;5045137;28;20138;-68
2021/10/27 16:53:33;;;;;;;13.50;6.03;;;16.20;99.90;;;;;;5045616;28;20048;-69
2021/10/27 16:56:00;;;;;;;16.73;5.53;;;16.30;99.90;;;;;;5044552;28;20021;-69
2021/10/27 16:58:28;;;;;;;11.20;6.15;;;16.30;99.90;;;;;;5046057;28;20463;-71
2021/10/27 17:00:56;;;;;;;15.02;6.07;;;16.30;99.90;;;;;;5045034;28;20024;-70
2021/10/27 17:03:23;;;;;;;10.85;5.72;;;16.30;99.90;;;;;;5042548;28;20086;-68
2021/10/27 17:05:49;;;;;;;13.50;5.65;;;16.40;99.90;;;;;;5044447;28;20036;-69
2021/10/27 17:08:17;;;;;;;20.08;7.63;;;16.40;99.90;;;;;;5045738;28;20029;-68
2021/10/27 17:10:51;;;;;;;13.50;5.90;;;16.50;99.90;;;;;;5045184;28;20028;-67
2021/10/27 17:13:19;;;;;;;16.27;5.85;;;16.50;99.90;;;;;;5048696;28;20439;-68
2021/10/27 17:15:46;;;;;;;16.70;5.80;;;16.40;99.90;;;;;;5044498;28;20526;-69
2021/10/27 17:18:14;;;;;;;19.67;6.80;;;16.30;99.90;;;;;;5042395;28;20529;-69
2021/10/27 17:20:44;;;;;;;16.33;7.15;;;16.40;99.90;;;;;;5045582;28;20108;-70
2021/10/27 17:23:27;;;;;;;17.33;7.47;;;16.30;99.90;;;;;;5043302;28;20604;-70
2021/10/27 17:25:54;;;;;;;20.33;7.00;;;16.20;99.90;;;;;;5041140;28;20097;-70
2021/10/27 17:28:22;;;;;;;23.25;8.63;;;16.10;99.90;;;;;;5044570;28;20082;-70
2021/10/27 17:30:49;;;;;;;27.98;8.95;;;16.10;99.90;;;;;;5048589;28;20384;-69
2021/10/27 17:33:17;;;;;;;21.38;8.07;;;16.00;99.90;;;;;;5046143;28;20017;-69
2021/10/27 17:35:45;;;;;;;26.30;7.95;;;16.00;99.90;;;;;;5043558;28;20071;-68
2021/10/27 17:38:12;;;;;;;25.13;8.85;;;16.10;99.90;;;;;;5043747;28;20465;-69
2021/10/27 17:40:43;;;;;;;19.67;8.88;;;16.10;99.90;;;;;;5046610;28;20074;-69
2021/10/27 17:43:10;;;;;;;28.77;8.00;;;16.00;99.90;;;;;;5045303;28;20483;-70
2021/10/27 17:45:39;;;;;;;16.80;7.75;;;16.00;99.90;;;;;;5045155;28;20550;-70
2021/10/27 17:48:18;;;;;;;19.88;8.13;;;16.10;99.90;;;;;;5046983;28;20136;-68
2021/10/27 17:50:59;;;;;;;21.05;7.57;;;16.00;99.90;;;;;;5046255;28;20127;-69
2021/10/27 17:58:44;;;;;;;19.15;7.15;;;15.60;99.90;;;;;;5045611;28;20039;-70
2021/10/27 18:01:14;;;;;;;18.25;7.45;;;15.50;99.90;;;;;;5043671;28;20031;-69
2021/10/27 18:03:43;;;;;;;19.20;7.78;;;15.40;99.90;;;;;;5045595;28;20510;-69
2021/10/27 18:06:14;;;;;;;31.98;8.93;;;15.30;99.90;;;;;;5046549;28;20025;-69
2021/10/27 18:08:45;;;;;;;30.35;8.85;;;15.30;99.90;;;;;;5045777;28;20039;-69